Time;durP1;ratioP1;P1;durP2;ratioP2;P2;SDS_P1;SDS_P2;PMS_P1;PMS_P2;Temp;Humidity;BMP_temperature;BMP_pressure;BME280_temperature;BME280_humidity;BME280_pressure;Samples;Min_cycle;Max_cycle;Signal;HPM_P1;HPM_P2
2023/06/09 00:01:35;;;;;;;3.58;1.70;;;23.00;53.30;;;;;;5072579;28;20036;-61
2023/06/09 00:04:04;;;;;;;5.05;1.80;;;23.00;53.30;;;;;;5072185;28;20039;-61
2023/06/09 00:06:30;;;;;;;4.28;1.77;;;23.00;53.30;;;;;;5072451;28;20052;-61
2023/06/09 00:08:59;;;;;;;4.82;2.00;;;23.00;53.30;;;;;;5072736;28;20036;-62
2023/06/09 00:11:25;;;;;;;6.00;2.20;;;23.00;53.30;;;;;;5071870;28;20048;-61
2023/06/09 00:13:51;;;;;;;4.38;1.70;;;23.00;53.40;;;;;;5072810;28;20142;-61
2023/06/09 00:16:16;;;;;;;5.03;1.98;;;23.00;53.40;;;;;;5071057;28;20049;-61
2023/06/09 00:18:43;;;;;;;4.50;1.80;;;23.00;53.40;;;;;;5072139;28;20040;-61
2023/06/09 00:21:09;;;;;;;3.90;1.73;;;23.00;53.40;;;;;;5072581;28;20094;-62
2023/06/09 00:23:35;;;;;;;5.43;1.98;;;22.90;53.40;;;;;;5072640;28;20040;-61
2023/06/09 00:26:00;;;;;;;5.13;1.63;;;23.00;53.40;;;;;;5071898;28;20041;-61
2023/06/09 00:28:26;;;;;;;5.55;1.75;;;22.90;53.40;;;;;;5072102;28;20045;-62
2023/06/09 00:30:51;;;;;;;4.07;1.73;;;22.90;53.40;;;;;;5072690;28;20054;-62
2023/06/09 00:33:17;;;;;;;4.40;1.75;;;22.90;53.40;;;;;;5071707;28;20408;-61
2023/06/09 00:35:43;;;;;;;5.57;1.77;;;23.00;53.40;;;;;;5072393;28;20040;-62
2023/06/09 00:38:09;;;;;;;6.28;1.90;;;22.90;53.40;;;;;;5072338;28;20037;-62
2023/06/09 00:40:34;;;;;;;3.58;1.63;;;22.90;53.40;;;;;;5070372;28;20576;-61
2023/06/09 00:43:00;;;;;;;5.63;2.00;;;22.90;53.40;;;;;;5072714;28;20143;-61
2023/06/09 00:45:25;;;;;;;5.68;1.70;;;22.90;53.40;;;;;;5072061;28;20043;-61
2023/06/09 00:47:51;;;;;;;6.05;2.22;;;22.90;53.40;;;;;;5071588;28;20551;-62
2023/06/09 00:50:19;;;;;;;5.05;2.15;;;22.90;53.50;;;;;;5072246;28;20063;-61
2023/06/09 00:52:45;;;;;;;6.53;2.25;;;22.90;53.50;;;;;;5071280;28;20036;-61
2023/06/09 00:55:12;;;;;;;3.88;1.75;;;22.90;53.50;;;;;;5070159;28;20047;-61
2023/06/09 00:57:39;;;;;;;4.70;2.83;;;22.80;53.40;;;;;;5071380;28;20071;-61
2023/06/09 01:00:06;;;;;;;4.20;2.10;;;22.90;53.50;;;;;;5071720;28;20115;-62
2023/06/09 01:02:32;;;;;;;4.80;1.95;;;22.90;53.50;;;;;;5072223;28;20476;-61
2023/06/09 01:04:58;;;;;;;5.20;2.35;;;22.90;53.50;;;;;;5072375;28;20044;-61
2023/06/09 01:08:05;;;;;;;3.67;1.73;;;22.80;53.50;;;;;;5071262;28;20468;-61
2023/06/09 01:10:48;;;;;;;7.55;2.40;;;22.80;53.50;;;;;;5049995;28;20129;-62
2023/06/09 01:13:45;;;;;;;6.00;1.80;;;22.80;53.60;;;;;;5070498;28;20058;-62
2023/06/09 01:16:47;;;;;;;6.28;2.00;;;22.80;53.60;;;;;;5066236;28;20060;-61
2023/06/09 01:19:41;;;;;;;5.20;2.10;;;22.80;53.60;;;;;;5069003;28;20053;-61
2023/06/09 01:22:49;;;;;;;6.28;2.20;;;22.80;53.60;;;;;;5062176;28;20071;-61
2023/06/09 01:25:34;;;;;;;4.43;2.20;;;22.80;53.60;;;;;;5068553;28;20056;-61
2023/06/09 01:28:07;;;;;;;5.88;1.88;;;22.80;53.60;;;;;;5071560;28;20062;-62
2023/06/09 01:30:33;;;;;;;5.13;2.13;;;22.80;53.70;;;;;;5074007;28;20048;-61
2023/06/09 01:33:01;;;;;;;4.10;1.90;;;22.80;53.70;;;;;;5057661;28;20374;-61
2023/06/09 01:35:26;;;;;;;5.32;1.95;;;22.80;53.70;;;;;;5073216;28;20507;-62
2023/06/09 01:37:52;;;;;;;4.95;2.10;;;22.80;53.70;;;;;;5075461;28;20045;-62
2023/06/09 01:40:18;;;;;;;3.92;2.13;;;22.80;53.70;;;;;;5073759;28;20487;-61
2023/06/09 01:42:44;;;;;;;4.32;1.73;;;22.80;53.70;;;;;;5073444;28;20044;-62
2023/06/09 01:45:10;;;;;;;6.95;1.90;;;22.80;53.70;;;;;;5075339;28;20048;-62
2023/06/09 01:47:35;;;;;;;4.05;2.00;;;22.70;53.70;;;;;;5075309;28;20040;-61
2023/06/09 01:50:05;;;;;;;4.57;2.00;;;22.70;53.70;;;;;;5074546;28;20036;-61
2023/06/09 01:52:37;;;;;;;3.97;2.08;;;22.70;53.70;;;;;;5075356;28;20048;-61
2023/06/09 01:55:07;;;;;;;5.43;2.05;;;22.70;53.70;;;;;;5073761;28;20043;-61
2023/06/09 01:57:38;;;;;;;4.22;1.85;;;22.70;53.70;;;;;;5073040;28;20399;-61
2023/06/09 02:00:05;;;;;;;5.90;1.95;;;22.70;53.70;;;;;;5075200;28;20080;-61
2023/06/09 02:02:32;;;;;;;5.70;2.03;;;22.70;53.80;;;;;;5073712;28;20048;-61
2023/06/09 02:04:58;;;;;;;4.30;1.90;;;22.70;53.70;;;;;;5072828;28;20085;-61
2023/06/09 02:07:24;;;;;;;5.28;2.08;;;22.70;53.70;;;;;;5057006;28;20041;-61
2023/06/09 02:09:49;;;;;;;4.57;2.20;;;22.70;53.70;;;;;;5074781;28;20217;-61
2023/06/09 02:12:15;;;;;;;4.65;1.95;;;22.60;53.70;;;;;;5072771;28;20075;-61
2023/06/09 02:14:41;;;;;;;6.20;2.10;;;22.60;53.70;;;;;;5073522;28;20041;-61
2023/06/09 02:17:08;;;;;;;4.45;1.92;;;22.60;53.70;;;;;;5074716;28;20051;-61
2023/06/09 02:19:37;;;;;;;4.00;1.75;;;22.60;53.70;;;;;;5073944;28;20045;-61
2023/06/09 02:22:03;;;;;;;5.43;2.22;;;22.60;53.70;;;;;;5074534;28;20044;-61
2023/06/09 02:24:29;;;;;;;5.93;2.50;;;22.60;53.70;;;;;;5072562;28;20047;-61
2023/06/09 02:26:56;;;;;;;5.18;2.00;;;22.60;53.80;;;;;;5075031;28;20056;-61
2023/06/09 02:29:26;;;;;;;5.05;1.67;;;22.60;53.70;;;;;;5074383;28;20080;-61
2023/06/09 02:31:55;;;;;;;5.03;1.95;;;22.60;53.70;;;;;;5073782;28;20125;-61
2023/06/09 02:34:22;;;;;;;4.95;2.05;;;22.60;53.80;;;;;;5074150;28;20503;-61
2023/06/09 02:36:52;;;;;;;5.28;1.88;;;22.60;53.80;;;;;;5074269;28;20111;-61
2023/06/09 02:39:21;;;;;;;7.07;2.50;;;22.60;53.80;;;;;;5073231;28;20385;-61
2023/06/09 02:41:47;;;;;;;4.40;1.92;;;22.60;53.80;;;;;;5073328;28;20117;-61
2023/06/09 02:44:12;;;;;;;5.32;2.20;;;22.60;53.80;;;;;;5073976;28;20080;-61
2023/06/09 02:46:40;;;;;;;5.13;1.92;;;22.60;53.80;;;;;;5073459;28;20399;-61
2023/06/09 02:49:08;;;;;;;5.53;2.10;;;22.60;53.80;;;;;;5073991;28;20106;-62
2023/06/09 02:51:34;;;;;;;4.72;2.00;;;22.60;53.80;;;;;;5074127;28;20114;-61
2023/06/09 02:54:00;;;;;;;5.53;2.15;;;22.50;53.80;;;;;;5073124;28;20066;-61
2023/06/09 02:56:26;;;;;;;6.03;2.20;;;22.60;53.80;;;;;;5073784;28;20032;-61
2023/06/09 02:58:53;;;;;;;6.07;2.78;;;22.50;53.80;;;;;;5074186;28;20484;-61
2023/06/09 03:01:19;;;;;;;4.55;1.80;;;22.50;53.80;;;;;;5072898;28;20036;-61
2023/06/09 03:03:46;;;;;;;6.22;2.40;;;22.50;53.80;;;;;;5073932;28;20106;-61
2023/06/09 03:06:13;;;;;;;5.03;1.90;;;22.50;53.80;;;;;;5073636;28;20476;-61
2023/06/09 03:08:39;;;;;;;4.45;1.98;;;22.50;53.80;;;;;;5072819;28;20044;-61
2023/06/09 03:11:05;;;;;;;4.93;2.08;;;22.50;53.80;;;;;;5072860;28;20507;-61
2023/06/09 03:13:30;;;;;;;4.80;2.00;;;22.50;53.80;;;;;;5073232;28;20048;-61
2023/06/09 03:15:57;;;;;;;7.72;2.30;;;22.50;53.90;;;;;;5073518;28;20078;-61
2023/06/09 03:18:22;;;;;;;4.60;1.90;;;22.50;53.90;;;;;;5073030;28;20476;-61
2023/06/09 03:20:50;;;;;;;5.00;2.20;;;22.50;53.90;;;;;;5072913;28;20052;-61
2023/06/09 03:23:17;;;;;;;5.55;2.08;;;22.50;53.80;;;;;;5072946;28;20076;-61
2023/06/09 03:25:42;;;;;;;5.00;2.28;;;22.50;53.90;;;;;;5073567;28;20045;-62
2023/06/09 03:28:08;;;;;;;7.18;2.35;;;22.50;53.90;;;;;;5072171;28;20063;-61
2023/06/09 03:30:34;;;;;;;5.93;2.05;;;22.50;53.90;;;;;;5073596;28;20052;-61
2023/06/09 03:33:00;;;;;;;7.15;2.17;;;22.50;53.90;;;;;;5073362;28;20053;-61
2023/06/09 03:35:26;;;;;;;5.93;2.00;;;22.50;53.90;;;;;;5072374;28;20040;-61
2023/06/09 03:37:51;;;;;;;6.15;2.47;;;22.50;53.90;;;;;;5073387;28;20415;-61
2023/06/09 03:40:17;;;;;;;4.50;2.00;;;22.50;53.90;;;;;;5072750;28;20044;-61
2023/06/09 03:42:43;;;;;;;6.70;2.15;;;22.40;53.90;;;;;;5071270;28;20040;-61
2023/06/09 03:45:08;;;;;;;5.38;2.20;;;22.50;53.90;;;;;;5073027;28;20055;-61
2023/06/09 03:47:34;;;;;;;5.63;2.10;;;22.40;53.90;;;;;;5073123;28;20032;-61
2023/06/09 03:50:00;;;;;;;5.00;2.08;;;22.50;54.00;;;;;;5072228;28;20084;-61
2023/06/09 03:52:26;;;;;;;5.38;2.13;;;22.40;54.60;;;;;;5072486;28;20044;-61
2023/06/09 03:54:52;;;;;;;5.45;1.98;;;22.50;54.00;;;;;;5073006;28;20090;-61
2023/06/09 03:57:17;;;;;;;5.15;2.25;;;22.40;54.00;;;;;;5071901;28;20036;-61
2023/06/09 03:59:43;;;;;;;5.13;2.33;;;22.40;54.00;;;;;;5073010;28;20045;-61
2023/06/09 04:02:08;;;;;;;4.07;2.22;;;22.40;54.00;;;;;;5065283;28;20047;-61
2023/06/09 04:04:34;;;;;;;6.50;2.53;;;22.40;54.00;;;;;;5068574;28;20601;-61
2023/06/09 04:06:59;;;;;;;5.78;2.13;;;22.40;54.00;;;;;;5072095;28;20039;-61
2023/06/09 04:09:26;;;;;;;4.75;2.35;;;22.40;54.00;;;;;;5072416;28;20582;-61
2023/06/09 04:11:52;;;;;;;5.15;2.47;;;22.40;54.10;;;;;;5071970;28;20076;-61
2023/06/09 04:14:18;;;;;;;6.47;2.38;;;22.40;54.00;;;;;;5071080;28;20090;-61
2023/06/09 04:16:43;;;;;;;5.22;2.35;;;22.30;54.00;;;;;;5072842;28;20048;-61
2023/06/09 04:19:09;;;;;;;4.50;2.00;;;22.40;54.10;;;;;;5071560;28;20040;-61
2023/06/09 04:21:35;;;;;;;5.15;2.13;;;22.30;54.10;;;;;;5072885;28;20049;-61
2023/06/09 04:24:01;;;;;;;6.55;2.30;;;22.30;54.10;;;;;;5070790;28;20052;-61
2023/06/09 04:26:27;;;;;;;4.82;2.13;;;22.30;54.10;;;;;;5072151;28;20048;-61
2023/06/09 04:28:53;;;;;;;6.80;2.22;;;22.30;54.10;;;;;;5072548;28;20052;-61
2023/06/09 04:31:23;;;;;;;5.53;2.20;;;22.30;54.10;;;;;;5071450;28;20040;-61
2023/06/09 04:33:52;;;;;;;4.07;2.15;;;22.30;54.10;;;;;;5072756;28;20066;-61
2023/06/09 04:36:18;;;;;;;5.57;2.60;;;22.30;54.10;;;;;;5072463;28;20097;-61
2023/06/09 04:38:45;;;;;;;4.65;2.08;;;22.30;54.10;;;;;;5071545;28;20048;-61
2023/06/09 04:41:11;;;;;;;7.35;2.50;;;22.30;54.10;;;;;;5072439;28;20115;-64
2023/06/09 04:43:39;;;;;;;5.82;2.40;;;22.30;54.20;;;;;;5072329;28;20041;-61
2023/06/09 04:46:05;;;;;;;4.70;1.98;;;22.30;54.20;;;;;;5071910;28;20116;-62
2023/06/09 04:48:34;;;;;;;6.97;2.35;;;22.30;54.10;;;;;;5072349;28;20467;-61
2023/06/09 04:51:01;;;;;;;7.10;2.45;;;22.30;54.20;;;;;;5072393;28;20112;-61
2023/06/09 04:53:28;;;;;;;7.07;2.60;;;22.30;54.20;;;;;;5071460;28;20060;-63
2023/06/09 04:55:54;;;;;;;5.30;2.30;;;22.30;54.20;;;;;;5072311;28;20041;-63
2023/06/09 04:58:20;;;;;;;4.30;2.05;;;22.30;54.20;;;;;;5072129;28;20052;-63
2023/06/09 05:00:45;;;;;;;5.43;2.25;;;22.30;54.30;;;;;;5070587;28;20041;-61
2023/06/09 05:03:17;;;;;;;4.45;2.45;;;22.30;54.20;;;;;;5071895;28;20083;-61
2023/06/09 05:05:43;;;;;;;6.10;2.38;;;22.30;54.30;;;;;;5076016;28;20041;-61
2023/06/09 05:08:09;;;;;;;4.32;2.25;;;22.30;54.90;;;;;;5075011;28;20051;-63
2023/06/09 05:10:35;;;;;;;6.57;2.17;;;22.30;54.30;;;;;;5075928;28;20040;-61
2023/06/09 05:13:00;;;;;;;4.93;2.10;;;22.30;54.30;;;;;;5075974;28;20075;-62
2023/06/09 05:15:27;;;;;;;5.03;2.15;;;22.30;54.30;;;;;;5074943;28;20063;-63
2023/06/09 05:17:53;;;;;;;4.53;2.10;;;22.30;54.30;;;;;;5075999;28;20040;-62
2023/06/09 05:20:18;;;;;;;5.10;2.22;;;22.20;54.30;;;;;;5074715;28;20488;-61
2023/06/09 05:22:44;;;;;;;4.75;1.98;;;22.30;54.40;;;;;;5074458;28;20056;-61
2023/06/09 05:25:13;;;;;;;5.40;2.35;;;22.30;54.40;;;;;;5075441;28;20055;-62
2023/06/09 05:27:41;;;;;;;5.68;2.42;;;22.30;54.40;;;;;;5074736;28;20052;-64
2023/06/09 05:30:07;;;;;;;4.30;1.95;;;22.30;54.40;;;;;;5075473;28;20044;-63
2023/06/09 05:32:33;;;;;;;5.75;2.15;;;22.30;54.40;;;;;;5075810;28;20160;-63
2023/06/09 05:35:00;;;;;;;6.70;2.40;;;22.30;54.40;;;;;;5075125;28;20043;-63
2023/06/09 05:37:25;;;;;;;5.35;1.92;;;22.20;54.30;;;;;;5075241;28;20055;-61
2023/06/09 05:39:51;;;;;;;5.43;2.25;;;22.30;54.40;;;;;;5074045;28;20036;-61
2023/06/09 05:42:16;;;;;;;4.30;2.15;;;22.20;54.30;;;;;;5074497;28;20052;-60
2023/06/09 05:44:42;;;;;;;4.60;2.00;;;22.30;54.40;;;;;;5075352;28;20040;-62
2023/06/09 05:47:07;;;;;;;4.05;2.10;;;22.30;54.40;;;;;;5075345;28;20048;-61
2023/06/09 05:49:34;;;;;;;5.85;2.10;;;22.20;54.40;;;;;;5074848;28;20103;-62
2023/06/09 05:52:00;;;;;;;6.07;2.70;;;22.30;54.40;;;;;;5075241;28;20048;-63
2023/06/09 05:54:26;;;;;;;5.68;2.40;;;22.30;54.50;;;;;;5074890;28;20046;-61
2023/06/09 05:56:53;;;;;;;3.78;2.03;;;22.30;54.50;;;;;;5074576;28;20062;-62
2023/06/09 05:59:20;;;;;;;5.82;2.55;;;22.30;54.80;;;;;;5075077;28;20044;-61
2023/06/09 06:01:49;;;;;;;5.45;2.40;;;22.30;54.50;;;;;;5075102;28;20051;-61
2023/06/09 06:04:15;;;;;;;4.75;2.47;;;22.20;54.40;;;;;;5074288;28;20484;-61
2023/06/09 06:06:41;;;;;;;4.93;2.40;;;22.30;54.50;;;;;;5075227;28;20044;-62
2023/06/09 06:09:06;;;;;;;6.20;2.55;;;22.30;54.50;;;;;;5073446;28;20488;-60
2023/06/09 06:11:32;;;;;;;4.15;1.83;;;22.30;54.50;;;;;;5074240;28;20041;-61
2023/06/09 06:13:58;;;;;;;4.90;2.38;;;22.30;54.50;;;;;;5073634;28;20037;-60
2023/06/09 06:16:23;;;;;;;6.75;2.60;;;22.30;54.50;;;;;;5073960;28;20045;-60
2023/06/09 06:18:49;;;;;;;5.43;2.20;;;22.20;54.50;;;;;;5074674;28;20044;-61
2023/06/09 06:21:14;;;;;;;3.80;2.00;;;22.30;54.60;;;;;;5074594;28;20036;-61
2023/06/09 06:23:40;;;;;;;6.22;2.22;;;22.30;54.60;;;;;;5073921;28;20105;-60
2023/06/09 06:26:06;;;;;;;6.30;2.25;;;22.30;54.60;;;;;;5074210;28;20127;-60
2023/06/09 06:28:31;;;;;;;5.07;2.40;;;22.30;54.60;;;;;;5073182;28;20056;-60
2023/06/09 06:30:57;;;;;;;5.90;2.50;;;22.30;54.60;;;;;;5073916;28;20044;-60
2023/06/09 06:33:23;;;;;;;6.30;2.20;;;22.30;55.30;;;;;;5074416;28;20377;-61
2023/06/09 06:35:49;;;;;;;5.15;2.40;;;22.30;54.60;;;;;;5074475;28;20050;-61
2023/06/09 06:38:15;;;;;;;4.88;2.40;;;22.30;55.30;;;;;;5073554;28;20052;-62
2023/06/09 06:40:42;;;;;;;5.88;2.10;;;22.30;54.60;;;;;;5074415;28;20039;-61
2023/06/09 06:43:07;;;;;;;5.25;2.47;;;22.30;54.60;;;;;;5074187;28;20473;-62
2023/06/09 06:45:33;;;;;;;4.63;2.28;;;22.30;54.70;;;;;;5073660;28;20047;-61
2023/06/09 06:47:58;;;;;;;7.00;2.38;;;22.30;54.70;;;;;;5074310;28;20476;-62
2023/06/09 06:50:24;;;;;;;6.38;2.33;;;22.30;54.70;;;;;;5073916;28;20484;-61
2023/06/09 06:52:50;;;;;;;4.63;2.30;;;22.30;54.70;;;;;;5073113;28;20054;-61
2023/06/09 06:55:15;;;;;;;3.90;2.28;;;22.30;54.80;;;;;;5073824;28;20041;-61
2023/06/09 06:57:41;;;;;;;4.78;2.00;;;22.30;54.80;;;;;;5072693;28;20188;-61
2023/06/09 07:00:16;;;;;;;4.47;2.10;;;22.30;54.80;;;;;;5073093;28;20040;-61
2023/06/09 07:02:46;;;;;;;6.97;2.22;;;22.30;54.80;;;;;;5072612;28;20044;-61
2023/06/09 07:05:11;;;;;;;4.50;2.28;;;22.30;54.80;;;;;;5073760;28;20041;-60
2023/06/09 07:07:37;;;;;;;4.60;2.20;;;22.30;54.80;;;;;;5073028;28;20174;-62
2023/06/09 07:10:03;;;;;;;4.32;2.10;;;22.30;54.80;;;;;;5073822;28;20039;-62
2023/06/09 07:12:29;;;;;;;5.25;2.28;;;22.30;54.80;;;;;;5072129;28;20047;-62
2023/06/09 07:14:56;;;;;;;5.00;2.30;;;22.40;54.90;;;;;;5055043;28;20048;-62
2023/06/09 07:17:21;;;;;;;4.30;2.42;;;22.30;54.80;;;;;;5073434;28;20056;-62
2023/06/09 07:19:47;;;;;;;4.68;2.10;;;22.40;54.90;;;;;;5071862;28;20045;-62
2023/06/09 07:22:12;;;;;;;4.80;2.30;;;22.40;54.90;;;;;;5071902;28;20479;-61
2023/06/09 07:24:38;;;;;;;4.95;2.30;;;22.40;54.90;;;;;;5073568;28;20127;-62
2023/06/09 07:27:05;;;;;;;4.65;2.10;;;22.40;54.90;;;;;;5071890;28;20056;-62
2023/06/09 07:29:31;;;;;;;4.47;2.65;;;22.40;54.90;;;;;;5073609;28;20113;-62
2023/06/09 07:31:56;;;;;;;6.47;2.78;;;22.50;54.90;;;;;;5073562;28;20391;-62
2023/06/09 07:34:27;;;;;;;4.55;2.65;;;22.50;54.90;;;;;;5072491;28;20040;-61
2023/06/09 07:36:53;;;;;;;4.65;2.30;;;22.50;54.80;;;;;;5073434;28;20131;-62
2023/06/09 07:39:19;;;;;;;5.68;2.47;;;22.50;54.80;;;;;;5072991;28;20045;-62
2023/06/09 07:41:45;;;;;;;5.10;2.90;;;22.50;54.80;;;;;;5072817;28;20040;-61
2023/06/09 07:44:10;;;;;;;4.90;2.17;;;22.50;54.70;;;;;;5073073;28;20051;-62
2023/06/09 07:46:36;;;;;;;5.03;2.45;;;22.50;54.70;;;;;;5073106;28;20041;-62
2023/06/09 07:49:02;;;;;;;5.15;2.53;;;22.50;54.60;;;;;;5072156;28;20056;-62
2023/06/09 07:51:29;;;;;;;5.07;2.60;;;22.50;54.60;;;;;;5072869;28;20049;-62
2023/06/09 07:53:54;;;;;;;4.00;2.47;;;22.50;54.60;;;;;;5072992;28;20076;-61
2023/06/09 07:56:20;;;;;;;5.60;2.58;;;22.60;54.60;;;;;;5072198;28;20429;-62
2023/06/09 07:58:46;;;;;;;5.80;2.10;;;22.50;54.60;;;;;;5073009;28;20097;-62
2023/06/09 08:01:11;;;;;;;4.95;2.35;;;22.60;54.60;;;;;;5071352;28;20047;-63
2023/06/09 08:03:38;;;;;;;5.68;2.30;;;22.60;55.40;;;;;;5072371;28;20046;-62
2023/06/09 08:06:03;;;;;;;5.82;2.20;;;22.60;54.60;;;;;;5072986;28;20033;-62
2023/06/09 08:08:31;;;;;;;6.35;2.38;;;22.60;54.60;;;;;;5072416;28;20123;-62
2023/06/09 08:10:57;;;;;;;5.03;2.60;;;22.60;54.60;;;;;;5072067;28;20048;-62
2023/06/09 08:13:24;;;;;;;5.10;2.30;;;22.60;54.60;;;;;;5072589;28;20310;-62
2023/06/09 08:15:49;;;;;;;5.10;2.30;;;22.60;54.60;;;;;;5072904;28;20036;-61
2023/06/09 08:18:15;;;;;;;3.35;2.03;;;22.60;54.60;;;;;;5071612;28;20051;-61
2023/06/09 08:20:41;;;;;;;4.13;2.20;;;22.60;54.60;;;;;;5072816;28;20087;-61
2023/06/09 08:23:07;;;;;;;4.80;2.65;;;22.60;54.60;;;;;;5072069;28;20040;-61
2023/06/09 08:25:34;;;;;;;4.50;2.60;;;22.60;54.60;;;;;;5072723;28;20037;-62
2023/06/09 08:28:00;;;;;;;6.17;2.60;;;22.70;54.60;;;;;;5072482;28;20052;-62
2023/06/09 08:30:26;;;;;;;4.75;2.55;;;22.70;54.60;;;;;;5070332;28;20439;-62
2023/06/09 08:32:51;;;;;;;5.72;2.63;;;22.70;54.60;;;;;;5072372;28;20048;-61
2023/06/09 08:35:17;;;;;;;4.45;2.35;;;22.70;54.60;;;;;;5072491;28;20526;-62
2023/06/09 08:37:44;;;;;;;6.35;2.50;;;22.70;54.60;;;;;;5072092;28;20047;-62
2023/06/09 08:40:09;;;;;;;3.53;2.10;;;22.80;54.60;;;;;;5073750;28;20119;-61
2023/06/09 08:42:35;;;;;;;4.07;2.40;;;22.70;54.60;;;;;;5076754;28;20128;-62
2023/06/09 08:45:03;;;;;;;4.63;2.63;;;22.80;54.70;;;;;;5076004;28;20102;-62
2023/06/09 08:47:33;;;;;;;4.15;2.30;;;22.80;54.60;;;;;;5076603;28;20116;-62
2023/06/09 08:49:59;;;;;;;4.78;2.20;;;22.80;54.60;;;;;;5056727;28;20430;-62
2023/06/09 08:52:28;;;;;;;5.72;2.40;;;22.80;54.60;;;;;;5055308;28;20045;-62
2023/06/09 08:54:56;;;;;;;4.82;2.38;;;22.80;54.60;;;;;;5056340;28;20083;-62
2023/06/09 08:57:22;;;;;;;5.45;2.50;;;22.80;54.60;;;;;;5056116;28;20485;-62
2023/06/09 08:59:48;;;;;;;5.25;2.35;;;22.80;54.60;;;;;;5054196;28;20059;-62
2023/06/09 09:02:14;;;;;;;5.10;2.30;;;22.90;54.70;;;;;;5056012;28;20118;-62
2023/06/09 09:04:40;;;;;;;3.30;2.35;;;22.80;54.60;;;;;;5056295;28;20041;-62
2023/06/09 09:07:06;;;;;;;4.35;2.47;;;22.90;54.70;;;;;;5054426;28;20037;-62
2023/06/09 09:09:32;;;;;;;5.68;2.53;;;22.90;54.60;;;;;;5054712;28;20512;-62
2023/06/09 09:11:58;;;;;;;4.53;2.13;;;22.90;54.60;;;;;;5054846;28;20131;-62
2023/06/09 09:14:24;;;;;;;4.57;2.60;;;22.90;54.60;;;;;;5055011;28;20068;-61
2023/06/09 09:16:49;;;;;;;4.65;2.20;;;22.90;54.60;;;;;;5055848;28;20083;-61
2023/06/09 09:19:16;;;;;;;4.13;2.65;;;22.90;54.60;;;;;;5055175;28;20037;-62
2023/06/09 09:21:42;;;;;;;4.80;2.65;;;22.90;54.50;;;;;;5038196;28;20052;-62
2023/06/09 09:24:10;;;;;;;4.28;2.47;;;23.00;54.60;;;;;;5055601;28;20037;-62
2023/06/09 09:26:35;;;;;;;5.47;2.78;;;23.00;54.60;;;;;;5053832;28;20106;-61
2023/06/09 09:29:08;;;;;;;6.30;2.75;;;23.00;54.60;;;;;;5064312;28;20053;-62
2023/06/09 09:31:36;;;;;;;4.80;2.13;;;23.00;54.60;;;;;;5074551;28;20052;-61
2023/06/09 09:34:04;;;;;;;3.92;2.25;;;23.00;54.60;;;;;;5074789;28;20509;-62
2023/06/09 09:36:30;;;;;;;5.47;2.47;;;23.00;54.60;;;;;;5075186;28;20094;-62
2023/06/09 09:38:56;;;;;;;3.97;2.20;;;23.00;54.60;;;;;;5075429;28;20040;-62
2023/06/09 09:41:22;;;;;;;5.53;2.55;;;23.10;54.60;;;;;;5074620;28;20040;-61
2023/06/09 09:43:47;;;;;;;4.45;2.13;;;23.10;54.60;;;;;;5075289;28;20535;-61
2023/06/09 09:46:14;;;;;;;4.93;2.33;;;23.10;54.60;;;;;;5073799;28;20059;-63
2023/06/09 09:48:40;;;;;;;5.20;2.60;;;23.10;55.30;;;;;;5073500;28;20055;-62
2023/06/09 09:51:06;;;;;;;4.68;2.53;;;23.10;54.60;;;;;;5074713;28;20044;-62
2023/06/09 09:53:31;;;;;;;4.78;2.45;;;23.10;54.60;;;;;;5073228;28;20098;-62
2023/06/09 09:55:59;;;;;;;3.80;2.22;;;23.10;54.60;;;;;;5074305;28;20127;-62
2023/06/09 09:58:30;;;;;;;4.50;2.00;;;23.10;54.60;;;;;;5074804;28;20490;-61
2023/06/09 10:00:59;;;;;;;6.82;2.80;;;23.10;54.60;;;;;;5073038;28;20115;-62
2023/06/09 10:03:25;;;;;;;5.32;2.70;;;23.10;55.30;;;;;;5072867;28;20043;-62
2023/06/09 10:05:51;;;;;;;4.30;2.50;;;23.10;54.70;;;;;;5075069;28;20064;-61
2023/06/09 10:08:21;;;;;;;4.88;2.20;;;23.10;54.60;;;;;;5074936;28;20033;-62
2023/06/09 10:10:51;;;;;;;4.10;2.28;;;23.10;54.70;;;;;;5072980;28;20055;-61
2023/06/09 10:13:16;;;;;;;4.10;2.42;;;23.10;54.70;;;;;;5074562;28;20053;-61
2023/06/09 10:15:43;;;;;;;5.30;2.88;;;23.10;54.70;;;;;;5074192;28;20090;-61
2023/06/09 10:18:08;;;;;;;5.00;2.30;;;23.10;54.70;;;;;;5074746;28;20045;-61
2023/06/09 10:20:35;;;;;;;3.90;2.20;;;23.10;54.70;;;;;;5074970;28;20446;-62
2023/06/09 10:23:01;;;;;;;5.30;2.70;;;23.20;54.80;;;;;;5074060;28;20057;-61
2023/06/09 10:25:26;;;;;;;4.05;2.20;;;23.20;54.80;;;;;;5073610;28;20415;-62
2023/06/09 10:27:52;;;;;;;5.10;2.25;;;23.10;54.70;;;;;;5073243;28;20052;-62
2023/06/09 10:30:17;;;;;;;5.65;2.80;;;23.10;54.70;;;;;;5073737;28;20048;-61
2023/06/09 10:32:47;;;;;;;5.22;2.47;;;23.10;54.80;;;;;;5074369;28;20120;-60
2023/06/09 10:35:15;;;;;;;4.28;2.70;;;23.20;54.80;;;;;;5074267;28;20377;-60
2023/06/09 10:37:41;;;;;;;5.47;2.70;;;23.20;54.80;;;;;;5072676;28;20044;-60
2023/06/09 10:40:13;;;;;;;4.35;2.65;;;23.20;54.80;;;;;;5074057;28;20041;-62
2023/06/09 10:43:06;;;;;;;5.68;2.70;;;23.10;54.80;;;;;;5074561;28;20044;-62
2023/06/09 10:45:50;;;;;;;2.95;2.20;;;23.20;54.80;;;;;;5073863;28;20080;-62
2023/06/09 10:48:50;;;;;;;6.00;2.40;;;23.20;54.80;;;;;;5074152;28;20044;-62
2023/06/09 10:51:26;;;;;;;5.03;2.50;;;23.20;54.80;;;;;;5072929;28;20434;-62
2023/06/09 10:54:23;;;;;;;4.43;2.53;;;23.10;54.80;;;;;;5074038;28;20098;-62
2023/06/09 10:56:56;;;;;;;5.40;2.90;;;23.20;54.80;;;;;;5069594;28;20565;-61
2023/06/09 10:59:25;;;;;;;4.00;2.58;;;23.20;54.80;;;;;;5073093;28;20076;-62
2023/06/09 11:02:02;;;;;;;3.88;2.35;;;23.20;54.80;;;;;;5073143;28;20050;-62
2023/06/09 11:04:41;;;;;;;3.97;2.60;;;23.20;54.80;;;;;;5073746;28;20047;-62
2023/06/09 11:07:24;;;;;;;3.95;2.35;;;23.20;54.80;;;;;;5072505;28;20805;-62
2023/06/09 11:09:49;;;;;;;5.20;2.70;;;23.20;54.80;;;;;;5073894;28;20044;-62
2023/06/09 11:12:42;;;;;;;3.90;2.38;;;23.20;54.80;;;;;;5072900;28;20380;-61
2023/06/09 11:15:09;;;;;;;4.60;2.50;;;23.20;54.80;;;;;;5072400;28;20496;-61
2023/06/09 11:17:44;;;;;;;4.78;2.60;;;23.20;54.80;;;;;;5073461;28;20499;-62
2023/06/09 11:20:11;;;;;;;4.45;2.58;;;23.20;54.80;;;;;;5071481;28;20056;-61
2023/06/09 11:22:46;;;;;;;4.45;2.30;;;23.20;54.80;;;;;;5072953;28;20037;-61
2023/06/09 11:25:17;;;;;;;4.60;2.40;;;23.20;54.80;;;;;;5073035;28;20186;-61
2023/06/09 11:27:47;;;;;;;4.82;3.00;;;23.20;54.80;;;;;;5072479;28;20063;-61
2023/06/09 11:30:20;;;;;;;4.43;2.53;;;23.30;54.80;;;;;;5071722;28;20055;-62
2023/06/09 11:32:45;;;;;;;3.33;2.22;;;23.20;54.80;;;;;;5073256;28;20491;-62
2023/06/09 11:35:31;;;;;;;4.07;2.50;;;23.20;54.80;;;;;;5072263;28;20044;-62
2023/06/09 11:38:00;;;;;;;3.67;2.30;;;23.30;54.80;;;;;;5072047;28;20055;-61
2023/06/09 11:40:27;;;;;;;5.45;2.75;;;23.30;54.80;;;;;;5071837;28;20419;-62
2023/06/09 11:42:52;;;;;;;5.15;2.92;;;23.30;54.80;;;;;;5073362;28;20052;-62
2023/06/09 11:45:18;;;;;;;4.57;2.88;;;23.30;54.80;;;;;;5071784;28;20041;-61
2023/06/09 11:47:45;;;;;;;4.47;2.83;;;23.30;54.80;;;;;;5072512;28;20403;-63
2023/06/09 11:50:12;;;;;;;3.83;2.40;;;23.30;54.80;;;;;;5072690;28;20388;-62
2023/06/09 11:52:44;;;;;;;3.90;2.60;;;23.30;54.80;;;;;;5072985;28;20040;-64
2023/06/09 11:55:11;;;;;;;4.32;2.67;;;23.30;54.80;;;;;;5071693;28;20840;-62
2023/06/09 11:57:38;;;;;;;4.10;2.63;;;23.30;54.80;;;;;;5073154;28;20045;-62
2023/06/09 12:00:12;;;;;;;5.30;2.75;;;23.30;54.80;;;;;;5071798;28;20543;-62
2023/06/09 12:02:41;;;;;;;4.43;2.55;;;23.30;54.80;;;;;;5071726;28;20093;-62
2023/06/09 12:05:08;;;;;;;5.35;2.85;;;23.30;54.80;;;;;;5071615;28;20042;-62
2023/06/09 12:07:34;;;;;;;4.13;2.47;;;23.30;54.70;;;;;;5072614;28;20491;-62
2023/06/09 12:10:00;;;;;;;4.30;2.88;;;23.30;54.70;;;;;;5072120;28;20040;-62
2023/06/09 12:12:25;;;;;;;3.70;2.67;;;23.30;54.70;;;;;;5072509;28;20056;-62
2023/06/09 12:14:51;;;;;;;3.92;2.85;;;23.30;54.80;;;;;;5071368;28;20032;-62
2023/06/09 12:17:16;;;;;;;4.15;2.80;;;23.30;54.70;;;;;;5071759;28;20136;-62
2023/06/09 12:19:42;;;;;;;4.43;2.70;;;23.40;54.80;;;;;;5071695;28;20036;-62
2023/06/09 12:22:07;;;;;;;4.60;2.90;;;23.40;54.80;;;;;;5071857;28;20041;-62
2023/06/09 12:24:33;;;;;;;4.68;2.58;;;23.40;54.80;;;;;;5072694;28;20093;-62
2023/06/09 12:27:10;;;;;;;5.03;2.88;;;23.40;54.80;;;;;;5072598;28;20064;-62
2023/06/09 12:29:36;;;;;;;4.68;2.85;;;23.40;54.70;;;;;;5071999;28;20127;-62
2023/06/09 12:32:02;;;;;;;3.72;2.45;;;23.40;54.70;;;;;;5072748;28;20095;-62
2023/06/09 12:34:29;;;;;;;4.55;2.72;;;23.50;54.80;;;;;;5072105;28;20068;-62
2023/06/09 12:36:58;;;;;;;4.90;2.70;;;23.40;54.80;;;;;;5070798;28;20095;-62
2023/06/09 12:39:24;;;;;;;5.72;3.17;;;23.50;54.90;;;;;;5072263;28;20047;-62
2023/06/09 12:41:50;;;;;;;5.15;2.83;;;23.50;54.80;;;;;;5072533;28;20041;-62
2023/06/09 12:44:23;;;;;;;4.10;2.80;;;23.50;54.80;;;;;;5071432;28;20039;-62
2023/06/09 12:46:55;;;;;;;4.30;2.88;;;23.50;54.80;;;;;;5071141;28;20450;-62
2023/06/09 12:49:31;;;;;;;4.63;2.83;;;23.50;54.80;;;;;;5071103;28;20369;-62
2023/06/09 12:51:58;;;;;;;4.38;3.10;;;23.50;54.90;;;;;;5070664;28;20081;-62